METAR v bližini

 

LIPQ - Ronchi Legionari, Italy
Oddaljenost od postaje: JZ 35km
Podatki zajeti: 25/01/2020 18:50
Pretežno oblačno
Pretežno oblačno
 Veter iz smeri S
Veter: S 6 km/h
Temperatura: 8°C
Temp. rosišča: 7°C
Vlažnost: 93%
Tlak: 1022 hPa
Oblačnost: Pretežno oblačno
Vidljivost: 10 km
Podrobnosti o oblakih: Pretežno oblačno 1524 m
2020/01/25 17:50 LIPQ 251750Z 01003KT 9999 BKN050 08/07 Q1022
LIVT - Trieste, Italy
Oddaljenost od postaje: J 49km
Podatki zajeti: 25/01/2020 17:55
Ni posodobljen
Pretežno oblačno
Pretežno oblačno
 Veter iz smeri spremenljiv
Veter: spremenljiv 0 km/h
Temperatura: 9°C
Temp. rosišča: 9°C
Vlažnost: 100%
Tlak: 1022 hPa
Oblačnost: Pretežno oblačno
Vidljivost: 10 km
Podrobnosti o oblakih: Pretežno oblačno 914 m
2020/01/25 16:55 LIVT 251655Z /////KT 9999 BKN030 09/09 Q1022 RMK BKN QUK / QUL / VIS MAR 15 KM VIS MIN 9999
 
LIVO - Tarvisio, Italy
Oddaljenost od postaje: SSZ 49km
Podatki zajeti: 25/01/2020 18:55
Jasno
Jasno
 Veter iz smeri calm
Veter: Tišina
Temperatura: 2°C
Temp. rosišča: -1°C
Vlažnost: 81%
Tlak: 1020 hPa
Stanje: Jasno
Vidljivost: večja od 10 km
2020/01/25 17:55 LIVO 251755Z 00000KT CAVOK 02/M01 Q1020 RMK SCT SCT200 VIS MIN 9999
LIPI - Rivolto (it-Afb), Italy
Oddaljenost od postaje: ZJZ 57km
Podatki zajeti: 24/01/2020 11:55
Ni posodobljen
Jasno
Jasno
 Veter iz smeri spremenljiv
Veter: spremenljiv 2 km/h
Temperatura: 8°C
Temp. rosišča: -2°C
Vlažnost: 50%
Tlak: 1028 hPa
Stanje: Jasno
Vidljivost: večja od 10 km
2020/01/24 10:55 LIPI 241055Z VRB01KT CAVOK 08/M02 Q1028 RMK SKC VIS MIN 9999 WIND THR06 VRB01KT WIND THR24 VRB01KT BLU
 
LJLJ - Ljubljana/Brnik, Slovenia
Oddaljenost od postaje: VSV 59km
Podatki zajeti: 25/01/2020 19:00
Pretežno oblačno
Pretežno oblačno
 Veter iz smeri SZ
Veter: SZ 7 km/h
Temperatura: 1°C
Občutek mraza zaradi vetra: -2°C
Temp. rosišča: 0°C
Vlažnost: 93%
Tlak: 1022 hPa
Oblačnost: Pretežno oblačno
Vidljivost: 10 km
Podrobnosti o oblakih: Pretežno oblačno 1372 m
2020/01/25 18:00 LJLJ 251800Z 31004KT 9999 BKN045 01/00 Q1022 NOSIG
LJPZ - Portoroz, Slovenia
Oddaljenost od postaje: J 68km
Podatki zajeti: 25/01/2020 19:00
Meglice, Rahlo dežuje, Oblačno
Meglice, Rahlo dežuje, Oblačno
 Veter iz smeri V
Veter: V 4 km/h
Temperatura: 9°C
Temp. rosišča: 9°C
Vlažnost: 100%
Tlak: 1023 hPa
Stanje: Meglice, Rahlo dežuje
Oblačnost: Oblačno
Vidljivost: 3 km
Podrobnosti o oblakih: Rahlo oblačno 610 m
Pretežno oblačno 914 m
Oblačno 1524 m
2020/01/25 18:00 LJPZ 251800Z 09002KT 2500 BR -RA FEW020 BKN030 OVC050 09/09 Q1023
 
LOWK - Klagenfurt(Civ/M, Austria
Oddaljenost od postaje: SV 78km
Podatki zajeti: 25/01/2020 18:50
Delno oblačno
Delno oblačno
 Veter iz smeri ZSZ
Veter: ZSZ 6 km/h
Temperatura: 0°C
Temp. rosišča: -3°C
Vlažnost: 80%
Tlak: 1022 hPa
Oblačnost: Delno oblačno
Vidljivost: 10 km
Podrobnosti o oblakih: Rahlo oblačno 1372 m
Delno oblačno 4572 m
2020/01/25 17:50 LOWK 251750Z 30003KT 9999 FEW045 SCT150 00/M03 Q1022 R10L/19//95 NOSIG
LIYW - Aviano (usaf), Italy
Oddaljenost od postaje: Z 86km
Podatki zajeti: 20/10/2015 15:58
Ni posodobljen
Jasno
Jasno
 Veter iz smeri JJZ
Veter: JJZ 6 km/h
Temperatura: 17°C
Temp. rosišča: 3°C
Vlažnost: 39%
Tlak: 1016.3 hPa
Oblačnost: Jasno
Vidljivost: 10 km
2015/10/20 13:58 LIYW 201358Z AUTO 21003KT 9999 CLR 17/03 A3001 RMK AO2 SLP167 T01660029
 
LIPA - Aviano (it/Us-Af, Italy
Oddaljenost od postaje: Z 89km
Podatki zajeti: 25/01/2020 18:55
Pretežno oblačno
Pretežno oblačno
 Veter iz smeri J
Veter: J 2 km/h
Temperatura: 6°C
Temp. rosišča: 5°C
Vlažnost: 93%
Tlak: 1022 hPa
Oblačnost: Pretežno oblačno
Vidljivost: 10 km
Podrobnosti o oblakih: Delno oblačno 1524 m
Pretežno oblačno 2134 m
2020/01/25 17:55 LIPA 251755Z 19001KT 9999 SCT050 BKN070 06/05 Q1022 RMK BKN VIS MIN 9999 WIND THR05 /////KT WIND THR23 /////KT A3020 BLU
LDRI - Rijeka/Omisalj, Croatia
Oddaljenost od postaje: JV 115km
Podatki zajeti: 25/01/2020 19:00
Rahlo dežuje, Oblačno
Rahlo dežuje, Oblačno
 Veter iz smeri VJV
Veter: VJV 6 km/h
Temperatura: 10°C
Temp. rosišča: 9°C
Vlažnost: 94%
Tlak: 1023 hPa
Stanje: Rahlo dežuje
Oblačnost: Oblačno
Vidljivost: 7 km
Podrobnosti o oblakih: Rahlo oblačno 213 m
Delno oblačno 610 m
Oblačno 853 m
2020/01/25 18:00 LDRI 251800Z 12003KT 7000 -RA FEW007 SCT020 OVC028 10/09 Q1023
 
LIPZ - Venezia/Tessera, Italy
Oddaljenost od postaje: ZJZ 127km
Podatki zajeti: 25/01/2020 18:50
Pretežno oblačno
Pretežno oblačno
 Veter iz smeri spremenljiv
Veter: spremenljiv 7 km/h
Temperatura: 8°C
Občutek mraza zaradi vetra: 7°C
Temp. rosišča: 4°C
Vlažnost: 76%
Tlak: 1023 hPa
Oblačnost: Pretežno oblačno
Vidljivost: 10 km
Podrobnosti o oblakih: Pretežno oblačno 1219 m
2020/01/25 17:50 LIPZ 251750Z VRB04KT 9999 BKN040 08/04 Q1023 NOSIG
LDPL - Pula, Croatia
Oddaljenost od postaje: J 133km
Podatki zajeti: 25/01/2020 19:00
Plitva megla, Pretežno oblačno
Plitva megla, Pretežno oblačno
 Veter iz smeri calm
Veter: Tišina
Temperatura: 9°C
Temp. rosišča: 9°C
Vlažnost: 100%
Tlak: 1023 hPa
Stanje: Plitva megla
Oblačnost: Pretežno oblačno
Vidljivost: 10 km
Podrobnosti o oblakih: Delno oblačno 183 m
Pretežno oblačno 1524 m
2020/01/25 18:00 LDPL 251800Z 00000KT 9999 MIFG SCT006 BKN050 09/09 Q1023 TEMPO BKN005
 
LIPS - Istrana (it-Afb), Italy
Oddaljenost od postaje: ZJZ 136km
Podatki zajeti: 25/01/2020 19:18
unable to load LIPS data RC=
unable to load LIPS data RC=
 
LIVD - Dobbiaco, Italy
Oddaljenost od postaje: ZSZ 137km
Podatki zajeti: 25/01/2020 18:55
Rahlo oblačno
Rahlo oblačno
 Veter iz smeri spremenljiv
Veter: spremenljiv 0 km/h
Temperatura: 0°C
Temp. rosišča: -4°C
Vlažnost: 75%
Tlak: 1021 hPa
Oblačnost: Rahlo oblačno
Vidljivost: 10 km
Podrobnosti o oblakih: Rahlo oblačno 1219 m
2020/01/25 17:55 LIVD 251755Z /////KT 9999 FEW040 00/M04 Q1021 RMK BKN BKN200 VIS MIN 9999
 
LJCE - Cerklje, Slovenia
Oddaljenost od postaje: V 139km
Podatki zajeti: 25/01/2020 19:00
Pretežno oblačno
Pretežno oblačno
 Veter iz smeri SV
Veter: SV 4 km/h
Temperatura: 6°C
Temp. rosišča: 3°C
Vlažnost: 81%
Tlak: 1022 hPa
Oblačnost: Pretežno oblačno
Vidljivost: 10 km
Podrobnosti o oblakih: Delno oblačno 1372 m
Pretežno oblačno 3658 m
2020/01/25 18:00 LJCE 251800Z 05002KT 9999 SCT045 BKN120 06/03 Q1022 RMK BLU
LOXZ - Zeltweg (mil), Austria
Oddaljenost od postaje: SSV 147km
Podatki zajeti: 25/01/2020 18:50
Oblačno
Oblačno
 Veter iz smeri calm
Veter: Tišina
Temperatura: 0°C
Temp. rosišča: -3°C
Vlažnost: 80%
Tlak: 1021 hPa
Oblačnost: Oblačno
Podrobnosti o oblakih: Oblačno 2591 m
2020/01/25 17:50 LOXZ 251750Z 00000KT 15KM OVC085AC M00/M03 Q1021
sucontract_SNC